Time;durP1;ratioP1;P1;durP2;ratioP2;P2;SDS_P1;SDS_P2;PMS_P1;PMS_P2;Temp;Humidity;BMP_temperature;BMP_pressure;BME280_temperature;BME280_humidity;BME280_pressure;Samples;Min_cycle;Max_cycle;Signal;HPM_P1;HPM_P2
2022/11/13 00:04:55;;;;;;;26;35.7;;;;;;;7.3;88.6;100350;;;;
2022/11/13 00:15:55;;;;;;;28.6;36.2;;;;;;;7.4;88.7;100350;;;;
2022/11/13 00:25:55;;;;;;;28.6;36.2;;;;;;;7.3;88.3;100350;;;;
2022/11/13 00:36:55;;;;;;;28.6;36.2;;;;;;;7.1;88.6;100340;;;;
2022/11/13 00:46:55;;;;;;;26.3;37.3;;;;;;;7.4;88.5;100340;;;;
2022/11/13 00:57:55;;;;;;;26.3;37.3;;;;;;;7.1;88.5;100330;;;;
2022/11/13 01:07:55;;;;;;;28.4;39.8;;;;;;;7;88.7;100330;;;;
2022/11/13 01:18:55;;;;;;;28.4;39.8;;;;;;;7.2;88.7;100320;;;;
2022/11/13 01:28:55;;;;;;;28.4;39.8;;;;;;;7.1;88.3;100320;;;;
2022/11/13 01:38:55;;;;;;;25.2;32.5;;;;;;;6.9;88.5;100320;;;;
2022/11/13 01:49:55;;;;;;;25.2;32.5;;;;;;;6.7;89;100310;;;;
2022/11/13 02:00:55;;;;;;;25.2;32.5;;;;;;;6.7;89.2;100300;;;;
2022/11/13 02:10:55;;;;;;;26.2;29.9;;;;;;;6.8;89.1;100300;;;;
2022/11/13 02:21:55;;;;;;;26.2;29.9;;;;;;;6.9;89.1;100300;;;;
2022/11/13 02:31:55;;;;;;;26.2;29.9;;;;;;;6.9;88.9;100300;;;;
2022/11/13 02:42:55;;;;;;;24.8;33.9;;;;;;;7.1;88.6;100290;;;;
2022/11/13 02:52:55;;;;;;;24.8;33.9;;;;;;;7.1;88.1;100290;;;;
2022/11/13 03:03:55;;;;;;;24.8;33.9;;;;;;;7;87.7;100300;;;;
2022/11/13 03:13:55;;;;;;;25.9;33.2;;;;;;;6.8;88;100290;;;;
2022/11/13 03:24:56;;;;;;;25.9;33.2;;;;;;;6.8;88.1;100300;;;;
2022/11/13 03:35:55;;;;;;;25.9;33.2;;;;;;;6.7;88.6;100300;;;;
2022/11/13 03:45:55;;;;;;;23;31.3;;;;;;;6.6;88.5;100310;;;;
2022/11/13 03:56:55;;;;;;;23;31.3;;;;;;;6.7;88.6;100320;;;;
2022/11/13 04:06:55;;;;;;;23;31.3;;;;;;;6.7;88.5;100310;;;;
2022/11/13 04:17:55;;;;;;;22.2;30.8;;;;;;;6.7;88.5;100310;;;;
2022/11/13 04:28:55;;;;;;;22.2;30.8;;;;;;;6.5;88.5;100300;;;;
2022/11/13 04:39:55;;;;;;;20;28.5;;;;;;;6.4;88.8;100300;;;;
2022/11/13 04:50:55;;;;;;;20;28.5;;;;;;;6.4;89;100300;;;;
2022/11/13 05:00:55;;;;;;;20;28.5;;;;;;;6.2;89.5;100300;;;;
2022/11/13 05:11:55;;;;;;;19.3;26.1;;;;;;;6.1;89.9;100300;;;;
2022/11/13 05:21:55;;;;;;;19.3;26.1;;;;;;;6.1;90;100300;;;;
2022/11/13 05:31:55;;;;;;;19.3;26.1;;;;;;;6.3;90;100300;;;;
2022/11/13 05:41:55;;;;;;;18.1;25.9;;;;;;;6.4;89.8;100300;;;;
2022/11/13 05:51:55;;;;;;;18.1;25.9;;;;;;;6.3;89.3;100300;;;;
2022/11/13 06:02:55;;;;;;;18.1;25.9;;;;;;;6.2;89.1;100300;;;;
2022/11/13 06:13:55;;;;;;;14.5;20.8;;;;;;;6.2;89.1;100300;;;;
2022/11/13 06:24:55;;;;;;;14.5;20.8;;;;;;;6.2;89.1;100290;;;;
2022/11/13 06:35:55;;;;;;;14.5;20.8;;;;;;;6;89.5;100290;;;;
2022/11/13 06:46:55;;;;;;;12.8;20.7;;;;;;;6.1;89.3;100290;;;;
2022/11/13 06:56:55;;;;;;;12.8;20.7;;;;;;;6.2;88.9;100280;;;;
2022/11/13 07:06:55;;;;;;;14.1;25.9;;;;;;;6.3;88.2;100290;;;;
2022/11/13 07:16:55;;;;;;;14.1;25.9;;;;;;;6.4;87.7;100290;;;;
2022/11/13 07:27:55;;;;;;;14.1;25.9;;;;;;;6.5;87.7;100280;;;;
2022/11/13 07:38:55;;;;;;;15.5;20.3;;;;;;;6.6;87.1;100270;;;;
2022/11/13 07:49:55;;;;;;;15.5;20.3;;;;;;;6.6;86.8;100270;;;;
2022/11/13 07:59:55;;;;;;;15.5;20.3;;;;;;;6.6;87.2;100280;;;;
2022/11/13 08:10:57;;;;;;;17.5;25.5;;;;;;;6.6;87;100290;;;;
2022/11/13 08:21:55;;;;;;;17.5;25.5;;;;;;;6.5;87.7;100300;;;;
2022/11/13 08:32:55;;;;;;;17.5;25.5;;;;;;;6.7;86.7;100300;;;;
2022/11/13 08:42:55;;;;;;;15.8;23.5;;;;;;;7;86.5;100300;;;;
2022/11/13 08:53:55;;;;;;;15.8;23.5;;;;;;;6.8;86.6;100300;;;;
2022/11/13 09:04:55;;;;;;;15.8;23.5;;;;;;;7;86.1;100300;;;;
2022/11/13 09:14:55;;;;;;;20.2;23.9;;;;;;;7.1;85.9;100300;;;;
2022/11/13 09:24:55;;;;;;;20.2;23.9;;;;;;;7.4;85.6;100280;;;;
2022/11/13 09:35:55;;;;;;;20.2;23.9;;;;;;;7.4;84.7;100280;;;;
2022/11/13 09:46:55;;;;;;;19.6;26.5;;;;;;;7.5;85;100280;;;;
2022/11/13 09:56:55;;;;;;;19.6;26.5;;;;;;;7.9;84.6;100270;;;;
2022/11/13 10:06:55;;;;;;;18.8;24.2;;;;;;;8;84.3;100270;;;;
2022/11/13 10:16:55;;;;;;;18.8;24.2;;;;;;;8.4;83.7;100250;;;;
2022/11/13 10:26:55;;;;;;;18.8;24.2;;;;;;;8.6;82.7;100250;;;;
2022/11/13 10:36:55;;;;;;;27.3;35;;;;;;;8.2;82.9;100250;;;;
2022/11/13 10:47:55;;;;;;;27.3;35;;;;;;;8.3;83.1;100240;;;;
2022/11/13 10:58:55;;;;;;;27.3;35;;;;;;;8.4;83.6;100240;;;;
2022/11/13 11:08:56;;;;;;;23;28.9;;;;;;;8.6;82.5;100240;;;;
2022/11/13 11:18:56;;;;;;;23;28.9;;;;;;;8.8;82.4;100230;;;;
2022/11/13 11:29:55;;;;;;;23;28.9;;;;;;;8.7;82.2;100230;;;;
2022/11/13 11:39:56;;;;;;;24.5;28.9;;;;;;;8.8;82.4;100210;;;;
2022/11/13 11:50:56;;;;;;;24.5;28.9;;;;;;;9.1;81.6;100200;;;;
2022/11/13 12:00:56;;;;;;;24.5;28.9;;;;;;;9.1;80.8;100180;;;;
2022/11/13 12:11:55;;;;;;;31.3;41.9;;;;;;;9.3;81.2;100160;;;;
2022/11/13 12:21:55;;;;;;;31.3;41.9;;;;;;;9.2;81.3;100160;;;;
2022/11/13 12:32:55;;;;;;;31.3;41.9;;;;;;;8.8;82.1;100150;;;;
2022/11/13 12:42:55;;;;;;;42.6;55.9;;;;;;;8.8;82.3;100140;;;;
2022/11/13 12:52:55;;;;;;;42.6;55.9;;;;;;;9;82.6;100130;;;;
2022/11/13 13:03:56;;;;;;;42.6;55.9;;;;;;;9;82.3;100130;;;;
2022/11/13 13:14:55;;;;;;;34.3;45.7;;;;;;;8.9;82.6;100120;;;;
2022/11/13 13:24:56;;;;;;;34.3;45.7;;;;;;;8.7;83.1;100120;;;;
2022/11/13 13:35:56;;;;;;;34.3;45.7;;;;;;;8.2;84.6;100120;;;;
2022/11/13 13:46:56;;;;;;;51;69.7;;;;;;;8.3;84.7;100100;;;;
2022/11/13 13:57:56;;;;;;;51;69.7;;;;;;;8.4;84.9;100090;;;;
2022/11/13 14:08:56;;;;;;;30.4;39.6;;;;;;;7.9;85.5;100090;;;;
2022/11/13 14:18:56;;;;;;;30.4;39.6;;;;;;;7.9;86;100090;;;;
2022/11/13 14:28:56;;;;;;;30.4;39.6;;;;;;;8;85.5;100080;;;;
2022/11/13 14:39:56;;;;;;;35.3;45.5;;;;;;;8;85.3;100070;;;;
2022/11/13 14:49:56;;;;;;;35.3;45.5;;;;;;;7.6;86.2;100070;;;;
2022/11/13 14:59:56;;;;;;;35.3;45.5;;;;;;;7.7;86.2;100070;;;;
2022/11/13 15:10:56;;;;;;;32.5;39.9;;;;;;;7.4;87;100060;;;;
2022/11/13 15:20:56;;;;;;;32.5;39.9;;;;;;;7.2;87.6;100060;;;;
2022/11/13 15:30:56;;;;;;;32.5;39.9;;;;;;;7.1;88.1;100070;;;;
2022/11/13 15:41:55;;;;;;;28.7;36.4;;;;;;;7;88.7;100060;;;;
2022/11/13 15:51:56;;;;;;;28.7;36.4;;;;;;;6.9;89.2;100060;;;;
2022/11/13 16:02:56;;;;;;;28.7;36.4;;;;;;;6.8;89.7;100070;;;;
2022/11/13 16:12:56;;;;;;;43.7;56.9;;;;;;;6.7;89.8;100070;;;;
2022/11/13 16:23:56;;;;;;;;;;;;;;;6.7;89.9;100080;;;;
2022/11/13 16:33:56;;;;;;;33.2;42.7;;;;;;;6.8;89.6;100080;;;;
2022/11/13 16:43:56;;;;;;;33.2;42.7;;;;;;;6.8;89.3;100080;;;;
2022/11/13 16:53:56;;;;;;;33.2;42.7;;;;;;;6.8;89.2;100070;;;;
2022/11/13 17:04:56;;;;;;;29.6;38.2;;;;;;;6.6;89.6;100060;;;;
2022/11/13 17:15:56;;;;;;;29.6;38.2;;;;;;;6.7;89.8;100050;;;;
2022/11/13 17:25:56;;;;;;;34.3;44.9;;;;;;;6.7;90;100050;;;;
2022/11/13 17:36:56;;;;;;;34.3;44.9;;;;;;;6.6;90;100050;;;;
2022/11/13 17:46:56;;;;;;;34.3;44.9;;;;;;;6.6;90.4;100050;;;;
2022/11/13 17:57:56;;;;;;;32.1;43.8;;;;;;;6.6;90.3;100050;;;;
2022/11/13 18:08:56;;;;;;;32.1;43.8;;;;;;;6.5;90.8;100040;;;;
2022/11/13 18:18:56;;;;;;;32.1;43.8;;;;;;;6.6;90.6;100040;;;;
2022/11/13 18:29:56;;;;;;;35.8;47.1;;;;;;;6.7;90.6;100040;;;;
2022/11/13 18:39:57;;;;;;;35.8;47.1;;;;;;;6.6;90.7;100040;;;;
2022/11/13 18:49:57;;;;;;;35.8;47.1;;;;;;;6.6;91.1;100040;;;;
2022/11/13 19:00:56;;;;;;;36.7;52;;;;;;;6.8;91;100040;;;;
2022/11/13 19:11:56;;;;;;;36.7;52;;;;;;;6.8;90.7;100040;;;;
2022/11/13 19:21:56;;;;;;;36.7;52;;;;;;;6.8;90.6;100030;;;;
2022/11/13 19:31:56;;;;;;;38.4;52.8;;;;;;;6.7;91;100030;;;;
2022/11/13 19:42:56;;;;;;;38.4;52.8;;;;;;;6.6;90.9;100040;;;;
2022/11/13 19:52:56;;;;;;;38.4;52.8;;;;;;;6.6;90.7;100030;;;;
2022/11/13 20:02:56;;;;;;;32.1;44.2;;;;;;;6.6;90.9;100030;;;;
2022/11/13 20:12:56;;;;;;;32.1;44.2;;;;;;;6.6;91;100020;;;;
2022/11/13 20:23:56;;;;;;;32.1;44.2;;;;;;;6.6;91.3;100020;;;;
2022/11/13 20:34:56;;;;;;;36.2;47.7;;;;;;;6.5;91.5;100010;;;;
2022/11/13 20:45:56;;;;;;;36.2;47.7;;;;;;;6.4;91.6;100000;;;;
2022/11/13 20:55:56;;;;;;;30.9;46.8;;;;;;;6.4;91.7;100010;;;;
2022/11/13 21:06:56;;;;;;;30.9;46.8;;;;;;;6.5;91.5;100010;;;;
2022/11/13 21:16:56;;;;;;;30.9;46.8;;;;;;;6.6;91.5;100010;;;;
2022/11/13 21:26:56;;;;;;;22.7;30.4;;;;;;;6.7;91.1;100000;;;;
2022/11/13 21:37:56;;;;;;;22.7;30.4;;;;;;;6.5;91.2;100010;;;;
2022/11/13 21:48:56;;;;;;;22.7;30.4;;;;;;;6.5;90.9;100010;;;;
2022/11/13 21:59:56;;;;;;;24.4;35.6;;;;;;;6.4;91.2;100000;;;;
2022/11/13 22:10:56;;;;;;;24.4;35.6;;;;;;;6.3;91.9;99990;;;;
2022/11/13 22:20:56;;;;;;;24.4;35.6;;;;;;;6.3;92;99980;;;;
2022/11/13 22:30:56;;;;;;;18.3;27.6;;;;;;;6.3;91.9;99980;;;;
2022/11/13 22:41:56;;;;;;;18.3;27.6;;;;;;;6.4;91.9;99970;;;;
2022/11/13 22:52:56;;;;;;;18.3;27.6;;;;;;;6.5;91.8;99960;;;;
2022/11/13 23:02:56;;;;;;;17.7;24.7;;;;;;;6.7;91.6;99960;;;;
2022/11/13 23:12:56;;;;;;;17.7;24.7;;;;;;;6.8;91.3;99950;;;;
2022/11/13 23:22:56;;;;;;;17.7;24.7;;;;;;;7;90.9;99950;;;;
2022/11/13 23:33:56;;;;;;;17;21.6;;;;;;;7;90.2;99940;;;;
2022/11/13 23:43:56;;;;;;;17;21.6;;;;;;;7;90.1;99940;;;;
2022/11/13 23:54:56;;;;;;;17.7;24.1;;;;;;;6.9;89.5;99940;;;;
